createdAt,value
2023-11-08T00:01:02.897Z,6.63
2023-11-08T00:03:29.666Z,6.83
2023-11-08T00:05:56.505Z,6.82
2023-11-08T00:08:23.330Z,6.80
2023-11-08T00:10:50.694Z,6.87
2023-11-08T00:13:21.282Z,6.89
2023-11-08T00:15:51.357Z,6.77
2023-11-08T00:18:18.057Z,6.82
2023-11-08T00:20:46.289Z,6.72
2023-11-08T00:23:13.136Z,6.82
2023-11-08T00:25:39.638Z,6.76
2023-11-08T00:28:06.187Z,6.76
2023-11-08T00:30:32.742Z,6.74
2023-11-08T00:32:59.368Z,6.86
2023-11-08T00:35:27.505Z,6.92
2023-11-08T00:37:54.107Z,6.73
2023-11-08T00:40:20.717Z,6.88
2023-11-08T00:42:47.401Z,6.88
2023-11-08T00:45:14.174Z,6.79
2023-11-08T00:47:40.930Z,6.96
2023-11-08T00:50:08.316Z,7.06
2023-11-08T00:52:37.805Z,6.94
2023-11-08T00:55:06.545Z,6.62
2023-11-08T00:57:33.144Z,6.81
2023-11-08T00:59:59.749Z,6.91
2023-11-08T01:02:26.587Z,6.86
2023-11-08T01:04:53.314Z,6.88
2023-11-08T01:07:19.946Z,6.82
2023-11-08T01:09:46.570Z,6.94
2023-11-08T01:12:13.858Z,6.89
2023-11-08T01:14:42.661Z,7.03
2023-11-08T01:17:10.034Z,7.15
2023-11-08T01:19:37.352Z,7.07
2023-11-08T01:22:06.376Z,6.94
2023-11-08T01:24:33.438Z,7.07
2023-11-08T01:27:01.872Z,7.18
2023-11-08T01:29:29.333Z,7.25
2023-11-08T01:31:56.123Z,7.41
2023-11-08T01:34:22.967Z,7.15
2023-11-08T01:36:49.620Z,7.10
2023-11-08T01:39:16.653Z,7.08
2023-11-08T01:41:49.741Z,6.95
2023-11-08T01:44:19.290Z,7.04
2023-11-08T01:46:55.979Z,7.13
2023-11-08T01:49:28.924Z,6.91
2023-11-08T01:51:56.805Z,7.03
2023-11-08T01:54:24.482Z,7.00
2023-11-08T01:56:51.641Z,6.98
2023-11-08T01:59:19.137Z,7.10
2023-11-08T02:01:46.535Z,6.95
2023-11-08T02:04:13.538Z,7.03
2023-11-08T02:06:40.804Z,7.07
2023-11-08T02:09:07.652Z,7.02
2023-11-08T02:11:34.370Z,6.83
2023-11-08T02:14:02.497Z,6.93
2023-11-08T02:16:33.279Z,7.04
2023-11-08T02:19:00.319Z,6.93
2023-11-08T02:21:27.852Z,7.00
2023-11-08T02:23:55.158Z,7.14
2023-11-08T02:26:22.388Z,6.90
2023-11-08T02:28:49.013Z,6.81
2023-11-08T02:31:16.996Z,6.76
2023-11-08T02:33:43.998Z,6.98
2023-11-08T02:36:10.619Z,7.14
2023-11-08T02:38:37.271Z,6.94
2023-11-08T02:41:04.603Z,6.99
2023-11-08T02:43:32.705Z,7.04
2023-11-08T02:45:59.261Z,6.83
2023-11-08T02:48:25.857Z,6.83
2023-11-08T02:50:52.867Z,6.90
2023-11-08T02:53:21.251Z,6.99
2023-11-08T02:55:48.051Z,6.85
2023-11-08T02:58:15.640Z,6.87
2023-11-08T03:00:42.561Z,6.77
2023-11-08T03:03:09.542Z,6.90
2023-11-08T03:05:36.148Z,6.75
2023-11-08T03:08:02.761Z,6.97
2023-11-08T03:10:29.278Z,6.91
2023-11-08T03:12:56.141Z,6.99
2023-11-08T03:15:23.405Z,6.91
2023-11-08T03:17:52.351Z,6.72
2023-11-08T03:20:20.357Z,6.61
2023-11-08T03:22:47.705Z,6.63
2023-11-08T03:25:14.729Z,6.63
2023-11-08T03:27:45.476Z,6.76
2023-11-08T03:30:14.637Z,6.80
2023-11-08T03:32:41.849Z,6.79
2023-11-08T03:35:09.459Z,6.70
2023-11-08T03:37:40.113Z,6.71
2023-11-08T03:40:12.674Z,6.59
2023-11-08T03:42:40.734Z,6.80
2023-11-08T03:45:08.572Z,6.85
2023-11-08T03:47:35.578Z,6.50
2023-11-08T03:50:02.160Z,6.47
2023-11-08T03:52:28.744Z,6.61
2023-11-08T03:54:55.995Z,6.78
2023-11-08T03:57:22.854Z,6.71
2023-11-08T03:59:51.012Z,6.70
2023-11-08T04:02:21.405Z,6.76
2023-11-08T04:04:51.341Z,6.86
2023-11-08T04:07:21.718Z,6.82
2023-11-08T04:09:48.988Z,6.84
2023-11-08T04:12:15.732Z,6.93
2023-11-08T04:14:42.377Z,6.92
2023-11-08T04:17:10.057Z,6.97
2023-11-08T04:19:37.665Z,6.94
2023-11-08T04:22:06.445Z,6.94
2023-11-08T04:24:34.345Z,6.80
2023-11-08T04:27:04.373Z,6.79
2023-11-08T04:29:34.694Z,6.82
2023-11-08T04:32:01.458Z,6.57
2023-11-08T04:34:28.016Z,6.43
2023-11-08T04:36:54.726Z,6.53
2023-11-08T04:39:23.507Z,6.70
2023-11-08T04:41:51.145Z,6.71
2023-11-08T04:44:18.408Z,6.57
2023-11-08T04:46:45.116Z,6.55
2023-11-08T04:49:13.212Z,6.41
2023-11-08T04:51:40.228Z,6.49
2023-11-08T04:54:07.038Z,6.39
2023-11-08T04:56:33.692Z,6.67
2023-11-08T04:59:00.383Z,6.55
2023-11-08T05:01:29.491Z,6.56
2023-11-08T05:03:56.842Z,6.50
2023-11-08T05:06:23.480Z,6.60
2023-11-08T05:08:51.336Z,6.62
2023-11-08T05:11:18.770Z,6.59
2023-11-08T05:13:45.340Z,6.84
2023-11-08T05:16:13.429Z,6.72
2023-11-08T05:18:40.313Z,6.71
2023-11-08T05:21:07.046Z,6.52
2023-11-08T05:23:34.428Z,6.39
2023-11-08T05:26:01.238Z,6.54
2023-11-08T05:28:27.775Z,6.63
2023-11-08T05:30:54.424Z,6.40
2023-11-08T05:33:21.467Z,6.59
2023-11-08T05:35:48.048Z,6.60
2023-11-08T05:38:14.587Z,6.65
2023-11-08T05:40:41.146Z,6.83
2023-11-08T05:43:07.758Z,6.64
2023-11-08T05:45:34.402Z,6.74
2023-11-08T05:48:01.054Z,6.59
2023-11-08T05:50:27.636Z,6.46
2023-11-08T05:52:55.057Z,6.61
2023-11-08T05:55:21.746Z,6.60
2023-11-08T05:57:48.383Z,6.35
2023-11-08T06:00:15.394Z,6.51
2023-11-08T06:02:42.075Z,6.75
2023-11-08T06:05:09.219Z,6.66
2023-11-08T06:07:35.977Z,6.82
2023-11-08T06:10:03.062Z,6.95
2023-11-08T06:12:29.801Z,6.88
2023-11-08T06:14:56.668Z,6.80
2023-11-08T06:17:23.215Z,6.87
2023-11-08T06:19:50.214Z,6.55
2023-11-08T06:22:17.020Z,6.68
2023-11-08T06:24:43.644Z,6.73
2023-11-08T06:27:10.632Z,6.77
2023-11-08T06:29:40.795Z,6.57
2023-11-08T06:32:08.520Z,6.39
2023-11-08T06:34:35.275Z,6.52
2023-11-08T06:37:02.031Z,6.37
2023-11-08T06:39:29.840Z,6.32
2023-11-08T06:41:57.052Z,6.22
2023-11-08T06:44:23.842Z,6.28
2023-11-08T06:46:50.748Z,6.28
2023-11-08T06:49:17.333Z,6.32
2023-11-08T06:51:45.026Z,6.18
2023-11-08T06:54:13.864Z,6.31
2023-11-08T06:56:40.706Z,6.25
2023-11-08T06:59:07.374Z,6.29
2023-11-08T07:01:36.617Z,6.19
2023-11-08T07:04:03.546Z,6.38
2023-11-08T07:06:30.297Z,6.46
2023-11-08T07:08:56.894Z,6.29
2023-11-08T07:11:25.118Z,6.40
2023-11-08T07:13:51.670Z,6.43
2023-11-08T07:16:19.650Z,6.50
2023-11-08T07:18:47.073Z,6.63
2023-11-08T07:21:20.736Z,6.65
2023-11-08T07:23:48.111Z,6.55
2023-11-08T07:26:16.782Z,6.55
2023-11-08T07:28:48.259Z,6.76
2023-11-08T07:31:15.018Z,6.80
2023-11-08T07:33:42.249Z,6.83
2023-11-08T07:36:09.208Z,6.72
2023-11-08T07:38:36.629Z,6.83
2023-11-08T07:41:03.849Z,6.80
2023-11-08T07:43:30.900Z,6.82
2023-11-08T07:46:00.243Z,6.72
2023-11-08T07:48:27.544Z,6.92
2023-11-08T07:50:55.691Z,6.60
2023-11-08T07:53:22.645Z,6.74
2023-11-08T07:55:50.584Z,6.88
2023-11-08T07:58:20.005Z,6.91
2023-11-08T08:00:47.044Z,7.08
2023-11-08T08:03:14.983Z,7.04
2023-11-08T08:05:47.998Z,6.96
2023-11-08T08:08:26.284Z,7.16
2023-11-08T08:10:52.942Z,6.99
2023-11-08T08:13:54.375Z,7.07
2023-11-08T08:16:36.596Z,7.08
2023-11-08T08:19:18.987Z,7.15
2023-11-08T08:21:45.937Z,7.03
2023-11-08T08:24:39.383Z,7.13
2023-11-08T08:27:06.898Z,7.08
2023-11-08T08:29:44.743Z,7.04
2023-11-08T08:32:21.225Z,7.29
2023-11-08T08:34:50.048Z,7.07
2023-11-08T08:37:59.987Z,7.16
2023-11-08T08:41:30.709Z,7.17
2023-11-08T08:44:07.680Z,7.37
2023-11-08T08:46:34.599Z,7.20
2023-11-08T08:49:01.890Z,7.33
2023-11-08T08:51:28.842Z,7.43
2023-11-08T08:53:56.675Z,7.27
2023-11-08T08:56:24.301Z,7.27
2023-11-08T08:58:50.870Z,7.38
2023-11-08T09:01:20.357Z,7.33
2023-11-08T09:03:47.104Z,7.49
2023-11-08T09:06:13.861Z,7.47
2023-11-08T09:08:40.625Z,7.40
2023-11-08T09:11:07.305Z,7.48
2023-11-08T09:13:33.958Z,7.55
2023-11-08T09:16:02.381Z,7.79
2023-11-08T09:18:29.860Z,7.81
2023-11-08T09:20:58.005Z,7.67
2023-11-08T09:23:25.082Z,7.89
2023-11-08T09:25:51.656Z,7.68
2023-11-08T09:28:18.273Z,8.13
2023-11-08T09:30:44.891Z,8.04
2023-11-08T09:33:11.566Z,8.09
2023-11-08T09:35:38.800Z,8.18
2023-11-08T09:38:05.724Z,8.12
2023-11-08T09:40:32.996Z,8.23
2023-11-08T09:43:00.493Z,7.92
2023-11-08T09:45:32.074Z,8.02
2023-11-08T09:47:59.375Z,8.03
2023-11-08T09:50:26.535Z,8.18
2023-11-08T09:52:53.250Z,8.06
2023-11-08T09:55:19.971Z,7.97
2023-11-08T09:57:47.154Z,7.85
2023-11-08T10:00:15.499Z,7.82
2023-11-08T10:02:42.974Z,8.26
2023-11-08T10:05:10.538Z,8.43
2023-11-08T10:07:38.934Z,8.42
2023-11-08T10:10:07.896Z,8.52
2023-11-08T10:12:34.510Z,8.65
2023-11-08T10:15:04.165Z,8.67
2023-11-08T10:19:30.130Z,8.84
2023-11-08T10:20:28.700Z,8.62
2023-11-08T10:22:55.548Z,8.81
2023-11-08T10:25:26.878Z,8.55
2023-11-08T10:28:11.975Z,9.05
2023-11-08T10:30:41.263Z,9.19
2023-11-08T10:33:12.588Z,9.19
2023-11-08T10:35:41.397Z,9.42
2023-11-08T10:38:10.901Z,9.46
2023-11-08T10:40:37.614Z,9.38
2023-11-08T10:43:05.257Z,9.02
2023-11-08T10:45:34.006Z,9.42
2023-11-08T10:48:00.886Z,9.37
2023-11-08T10:50:28.390Z,9.50
2023-11-08T10:52:55.349Z,9.19
2023-11-08T10:55:26.601Z,9.31
2023-11-08T10:57:55.619Z,9.11
2023-11-08T11:00:27.279Z,9.05
2023-11-08T11:02:58.251Z,9.19
2023-11-08T11:05:25.524Z,8.90
2023-11-08T11:07:56.185Z,9.09
2023-11-08T11:10:23.147Z,9.07
2023-11-08T11:13:15.000Z,9.13
2023-11-08T11:15:45.479Z,8.91
2023-11-08T11:18:18.385Z,9.09
2023-11-08T11:20:57.434Z,9.42
2023-11-08T11:23:36.967Z,9.44
2023-11-08T11:26:05.195Z,9.53
2023-11-08T11:28:54.891Z,9.41
2023-11-08T11:31:42.376Z,9.33
2023-11-08T11:34:21.392Z,9.34
2023-11-08T11:37:19.688Z,9.01
2023-11-08T11:40:10.167Z,8.95
2023-11-08T11:42:36.976Z,9.22
2023-11-08T11:45:09.846Z,9.23
2023-11-08T11:47:37.715Z,9.20
2023-11-08T11:50:09.068Z,9.21
2023-11-08T11:52:37.704Z,9.12
2023-11-08T11:55:10.072Z,9.30
2023-11-08T11:57:37.842Z,9.13
2023-11-08T12:00:06.815Z,9.35
2023-11-08T12:02:37.156Z,9.52
2023-11-08T12:05:04.848Z,9.13
2023-11-08T12:07:32.403Z,9.12
2023-11-08T12:10:08.326Z,8.89
2023-11-08T12:12:35.179Z,9.02
2023-11-08T12:15:20.035Z,9.19
2023-11-08T12:17:51.513Z,9.15
2023-11-08T12:20:22.031Z,9.20
2023-11-08T12:22:50.116Z,9.43
2023-11-08T12:25:19.684Z,9.22
2023-11-08T12:27:50.624Z,9.45
2023-11-08T12:30:18.563Z,9.63
2023-11-08T12:32:46.058Z,9.86
2023-11-08T12:35:12.967Z,9.71
2023-11-08T12:37:40.862Z,9.60
2023-11-08T12:40:22.197Z,9.63
2023-11-08T12:42:49.859Z,9.70
2023-11-08T12:46:33.749Z,9.53
2023-11-08T12:48:16.777Z,9.58
2023-11-08T12:50:52.713Z,9.29
2023-11-08T12:53:19.327Z,9.04
2023-11-08T12:55:46.332Z,9.44
2023-11-08T12:58:28.347Z,9.40
2023-11-08T13:00:56.208Z,9.55
2023-11-08T13:03:27.123Z,9.56
2023-11-08T13:05:55.213Z,9.69
2023-11-08T13:08:22.969Z,9.82
2023-11-08T13:10:49.844Z,9.68
2023-11-08T13:13:16.812Z,9.75
2023-11-08T13:15:43.589Z,9.43
2023-11-08T13:18:11.918Z,9.70
2023-11-08T13:20:38.523Z,9.54
2023-11-08T13:23:05.807Z,9.66
2023-11-08T13:25:52.330Z,9.60
2023-11-08T13:28:18.903Z,9.67
2023-11-08T13:30:45.539Z,9.50
2023-11-08T13:33:12.144Z,9.82
2023-11-08T13:35:39.998Z,9.77
2023-11-08T13:38:08.926Z,9.66
2023-11-08T13:40:35.527Z,9.52
2023-11-08T13:43:02.569Z,9.65
2023-11-08T13:45:30.062Z,9.53
2023-11-08T13:47:57.960Z,9.73
2023-11-08T13:50:25.072Z,9.73
2023-11-08T13:52:52.330Z,9.80
2023-11-08T13:55:19.290Z,9.77
2023-11-08T13:57:47.127Z,9.85
2023-11-08T14:00:18.692Z,9.64
2023-11-08T14:02:47.104Z,9.56
2023-11-08T14:05:15.243Z,9.57
2023-11-08T14:07:42.338Z,9.56
2023-11-08T14:10:09.344Z,9.62
2023-11-08T14:12:36.173Z,9.45
2023-11-08T14:15:02.980Z,9.63
2023-11-08T14:17:32.478Z,9.57
2023-11-08T14:19:59.199Z,9.57
2023-11-08T14:22:26.455Z,9.54
2023-11-08T14:24:53.200Z,9.62
2023-11-08T14:27:19.766Z,9.55
2023-11-08T14:29:46.989Z,9.69
2023-11-08T14:32:13.576Z,9.86
2023-11-08T14:34:42.734Z,9.86
2023-11-08T14:37:09.615Z,9.25
2023-11-08T14:39:37.355Z,9.28
2023-11-08T14:42:04.510Z,9.40
2023-11-08T14:44:31.507Z,9.68
2023-11-08T14:46:58.246Z,9.79
2023-11-08T14:49:25.830Z,9.80
2023-11-08T14:51:52.670Z,9.67
2023-11-08T14:54:19.317Z,9.56
2023-11-08T14:56:47.861Z,9.52
2023-11-08T14:59:14.437Z,9.53
2023-11-08T15:01:41.056Z,9.44
2023-11-08T15:04:09.399Z,9.32
2023-11-08T15:06:36.933Z,9.46
2023-11-08T15:09:51.909Z,9.42
2023-11-08T15:11:52.071Z,9.40
2023-11-08T15:14:18.911Z,9.62
2023-11-08T15:16:45.592Z,9.54
2023-11-08T15:19:12.447Z,9.45
2023-11-08T15:21:43.272Z,9.45
2023-11-08T15:24:11.032Z,9.46
2023-11-08T15:26:38.691Z,9.43
2023-11-08T15:29:06.592Z,9.45
2023-11-08T15:31:33.641Z,9.54
2023-11-08T15:34:00.375Z,9.47
2023-11-08T15:36:26.956Z,9.47
2023-11-08T15:38:56.190Z,9.43
2023-11-08T15:41:27.083Z,9.49
2023-11-08T15:43:54.675Z,9.44
2023-11-08T15:46:22.361Z,9.39
2023-11-08T15:48:50.111Z,9.21
2023-11-08T15:51:20.790Z,9.38
2023-11-08T15:53:48.676Z,9.50
2023-11-08T15:56:16.075Z,9.34
2023-11-08T15:58:43.521Z,9.26
2023-11-08T16:01:10.146Z,9.28
2023-11-08T16:03:36.895Z,9.30
2023-11-08T16:06:04.143Z,9.30
2023-11-08T16:08:30.741Z,9.15
2023-11-08T16:10:57.748Z,9.19
2023-11-08T16:13:25.577Z,8.98
2023-11-08T16:15:53.959Z,8.92
2023-11-08T16:18:20.612Z,9.00
2023-11-08T16:20:50.842Z,8.95
2023-11-08T16:23:18.331Z,8.98
2023-11-08T16:25:44.916Z,8.93
2023-11-08T16:28:11.559Z,9.08
2023-11-08T16:31:00.503Z,9.00
2023-11-08T16:33:26.124Z,8.99
2023-11-08T16:35:52.727Z,8.99
2023-11-08T16:38:19.559Z,9.05
2023-11-08T16:40:46.186Z,8.88
2023-11-08T16:43:12.898Z,8.86
2023-11-08T16:45:39.609Z,8.47
2023-11-08T16:48:06.343Z,8.27
2023-11-08T16:50:32.958Z,8.18
2023-11-08T16:52:59.590Z,8.11
2023-11-08T16:55:26.490Z,8.22
2023-11-08T16:57:54.673Z,8.29
2023-11-08T17:00:24.138Z,8.29
2023-11-08T17:02:50.973Z,8.17
2023-11-08T17:05:17.824Z,8.05
2023-11-08T17:07:44.714Z,7.95
2023-11-08T17:10:12.867Z,7.93
2023-11-08T17:12:39.884Z,7.94
2023-11-08T17:15:08.844Z,7.90
2023-11-08T17:17:35.665Z,7.90
2023-11-08T17:20:02.219Z,7.93
2023-11-08T17:22:28.807Z,7.93
2023-11-08T17:24:55.380Z,8.00
2023-11-08T17:27:22.093Z,8.04
2023-11-08T17:29:48.635Z,8.17
2023-11-08T17:32:15.492Z,8.29
2023-11-08T17:34:42.106Z,8.33
2023-11-08T17:37:08.737Z,8.45
2023-11-08T17:39:35.323Z,8.44
2023-11-08T17:42:01.853Z,8.38
2023-11-08T17:44:29.682Z,8.53
2023-11-08T17:46:56.832Z,8.70
2023-11-08T17:49:23.502Z,8.59
2023-11-08T17:51:50.269Z,8.53
2023-11-08T17:54:17.069Z,8.61
2023-11-08T17:56:46.912Z,8.72
2023-11-08T17:59:13.984Z,8.53
2023-11-08T18:01:40.579Z,8.53
2023-11-08T18:04:07.254Z,8.60
2023-11-08T18:06:36.441Z,8.49
2023-11-08T18:09:03.755Z,8.47
2023-11-08T18:11:30.294Z,8.39
2023-11-08T18:13:57.906Z,8.52
2023-11-08T18:16:24.617Z,8.44
2023-11-08T18:18:51.263Z,8.46
2023-11-08T18:21:17.907Z,8.52
2023-11-08T18:23:44.596Z,8.38
2023-11-08T18:26:11.260Z,8.38
2023-11-08T18:28:37.859Z,8.32
2023-11-08T18:31:04.565Z,8.22
2023-11-08T18:33:31.840Z,8.33
2023-11-08T18:35:58.370Z,8.51
2023-11-08T18:38:25.012Z,8.66
2023-11-08T18:40:55.117Z,8.57
2023-11-08T18:43:25.855Z,8.48
2023-11-08T18:45:56.243Z,8.42
2023-11-08T18:48:27.519Z,8.41
2023-11-08T18:50:55.816Z,8.58
2023-11-08T18:53:24.704Z,8.66
2023-11-08T18:55:51.359Z,8.69
2023-11-08T18:58:23.581Z,8.63
2023-11-08T19:00:52.710Z,8.64
2023-11-08T19:03:19.337Z,8.63
2023-11-08T19:05:46.269Z,8.62
2023-11-08T19:08:12.911Z,8.75
2023-11-08T19:10:39.414Z,8.59
2023-11-08T19:13:06.256Z,8.67
2023-11-08T19:15:33.193Z,8.62
2023-11-08T19:18:00.253Z,8.53
2023-11-08T19:20:26.888Z,8.51
2023-11-08T19:22:57.213Z,8.57
2023-11-08T19:25:26.158Z,8.76
2023-11-08T19:27:54.062Z,8.74
2023-11-08T19:30:20.833Z,8.62
2023-11-08T19:32:47.436Z,8.44
2023-11-08T19:35:14.104Z,8.57
2023-11-08T19:37:41.161Z,8.45
2023-11-08T19:40:11.616Z,8.40
2023-11-08T19:42:38.351Z,8.62
2023-11-08T19:45:06.608Z,8.86
2023-11-08T19:47:33.191Z,8.63
2023-11-08T19:49:59.838Z,8.59
2023-11-08T19:52:26.414Z,8.60
2023-11-08T19:54:55.999Z,8.59
2023-11-08T19:57:23.812Z,8.58
2023-11-08T19:59:54.398Z,8.59
2023-11-08T20:02:21.068Z,8.48
2023-11-08T20:04:47.612Z,8.51
2023-11-08T20:07:14.239Z,8.40
2023-11-08T20:09:40.795Z,8.40
2023-11-08T20:12:07.765Z,8.28
2023-11-08T20:14:34.341Z,8.05
2023-11-08T20:17:01.900Z,8.16
2023-11-08T20:19:28.404Z,8.08
2023-11-08T20:21:55.080Z,8.15
2023-11-08T20:24:21.711Z,8.07
2023-11-08T20:26:49.232Z,8.15
2023-11-08T20:29:16.654Z,8.05
2023-11-08T20:31:45.820Z,7.89
2023-11-08T20:34:12.469Z,7.91
2023-11-08T20:36:39.079Z,7.95
2023-11-08T20:39:06.238Z,7.79
2023-11-08T20:41:32.802Z,7.74
2023-11-08T20:43:59.932Z,7.67
2023-11-08T20:46:26.518Z,7.81
2023-11-08T20:48:53.134Z,7.78
2023-11-08T20:51:19.776Z,7.79
2023-11-08T20:53:46.409Z,7.94
2023-11-08T20:56:13.293Z,7.92
2023-11-08T20:58:40.133Z,7.84
2023-11-08T21:01:07.421Z,7.75
2023-11-08T21:03:34.107Z,7.83
2023-11-08T21:06:00.981Z,7.82
2023-11-08T21:08:27.580Z,7.82
2023-11-08T21:10:54.211Z,7.90
2023-11-08T21:13:20.794Z,7.81
2023-11-08T21:15:49.635Z,7.94
2023-11-08T21:18:19.212Z,7.96
2023-11-08T21:20:48.551Z,7.78
2023-11-08T21:23:15.165Z,7.97
2023-11-08T21:25:41.733Z,8.00
2023-11-08T21:28:08.344Z,7.81
2023-11-08T21:30:35.242Z,7.62
2023-11-08T21:33:01.891Z,7.62
2023-11-08T21:35:30.763Z,7.52
2023-11-08T21:37:59.062Z,7.49
2023-11-08T21:40:25.900Z,7.52
2023-11-08T21:42:52.770Z,7.48
2023-11-08T21:45:19.499Z,7.43
2023-11-08T21:47:46.281Z,7.38
2023-11-08T21:50:13.528Z,7.28
2023-11-08T21:52:40.217Z,7.33
2023-11-08T21:55:07.306Z,7.37
2023-11-08T21:57:34.069Z,7.38
2023-11-08T22:00:00.817Z,7.32
2023-11-08T22:02:27.432Z,7.21
2023-11-08T22:04:54.394Z,7.32
2023-11-08T22:07:21.044Z,6.88
2023-11-08T22:09:47.731Z,7.01
2023-11-08T22:12:14.359Z,7.15
2023-11-08T22:14:40.917Z,7.18
2023-11-08T22:17:07.979Z,7.12
2023-11-08T22:19:34.859Z,7.08
2023-11-08T22:22:01.627Z,7.20
2023-11-08T22:24:28.832Z,7.27
2023-11-08T22:26:55.422Z,7.22
2023-11-08T22:29:22.265Z,7.27
2023-11-08T22:31:48.861Z,7.28
2023-11-08T22:34:15.482Z,7.38
2023-11-08T22:36:42.050Z,7.29
2023-11-08T22:39:09.206Z,7.37
2023-11-08T22:41:35.946Z,7.39
2023-11-08T22:44:02.539Z,7.32
2023-11-08T22:46:32.644Z,7.34
2023-11-08T22:48:59.667Z,7.46
2023-11-08T22:51:26.487Z,7.43
2023-11-08T22:53:55.811Z,7.17
2023-11-08T22:56:22.427Z,7.29
2023-11-08T22:58:49.049Z,7.21
2023-11-08T23:01:33.232Z,7.16
2023-11-08T23:04:03.709Z,7.19
2023-11-08T23:06:31.457Z,7.26
2023-11-08T23:09:01.588Z,7.38
2023-11-08T23:11:30.999Z,7.26
2023-11-08T23:13:57.614Z,7.30
2023-11-08T23:16:25.324Z,7.36
2023-11-08T23:18:55.236Z,7.24
2023-11-08T23:21:22.321Z,7.25
2023-11-08T23:23:50.437Z,7.41
2023-11-08T23:26:17.110Z,7.31
2023-11-08T23:28:44.750Z,7.40
2023-11-08T23:31:11.915Z,7.42
2023-11-08T23:33:38.586Z,7.72
2023-11-08T23:36:05.817Z,7.31
2023-11-08T23:38:32.677Z,7.38
2023-11-08T23:41:05.781Z,7.37
2023-11-08T23:43:32.391Z,7.43
2023-11-08T23:46:01.782Z,7.33
2023-11-08T23:48:28.615Z,7.22
2023-11-08T23:50:55.938Z,7.24
2023-11-08T23:53:22.773Z,7.32
2023-11-08T23:55:49.421Z,7.45
2023-11-08T23:58:16.810Z,7.49
